createdAt,value
2022-11-03T00:00:50.067Z,0.00
2022-11-03T00:01:50.212Z,0.00
2022-11-03T00:02:50.329Z,0.00
2022-11-03T00:03:50.070Z,0.00
2022-11-03T00:04:50.045Z,0.00
2022-11-03T00:05:50.035Z,0.00
2022-11-03T00:06:50.027Z,0.00
2022-11-03T00:07:49.989Z,0.00
2022-11-03T00:08:49.990Z,0.00
2022-11-03T00:09:49.979Z,0.00
2022-11-03T00:10:49.983Z,0.00
2022-11-03T00:11:49.949Z,0.00
2022-11-03T00:12:49.919Z,0.00
2022-11-03T00:13:49.938Z,0.00
2022-11-03T00:14:49.931Z,0.00
2022-11-03T00:15:49.894Z,0.00
2022-11-03T00:16:49.921Z,0.00
2022-11-03T00:17:49.916Z,0.00
2022-11-03T00:18:49.892Z,0.00
2022-11-03T00:19:49.899Z,0.00
2022-11-03T00:20:49.869Z,0.00
2022-11-03T00:21:49.862Z,0.00
2022-11-03T00:22:49.861Z,0.00
2022-11-03T00:23:49.838Z,0.00
2022-11-03T00:24:49.848Z,0.00
2022-11-03T00:25:49.809Z,0.00
2022-11-03T00:26:49.800Z,0.00
2022-11-03T00:27:49.851Z,0.00
2022-11-03T00:28:49.790Z,0.00
2022-11-03T00:29:49.798Z,0.00
2022-11-03T00:30:49.754Z,0.00
2022-11-03T00:31:49.766Z,0.00
2022-11-03T00:32:49.751Z,0.00
2022-11-03T00:33:49.779Z,0.00
2022-11-03T00:34:49.830Z,0.00
2022-11-03T00:35:49.720Z,0.00
2022-11-03T00:36:49.686Z,0.00
2022-11-03T00:37:49.692Z,0.00
2022-11-03T00:38:49.719Z,0.00
2022-11-03T00:39:49.670Z,0.00
2022-11-03T00:40:49.636Z,0.00
2022-11-03T00:41:49.658Z,0.00
2022-11-03T00:42:49.617Z,0.00
2022-11-03T00:43:49.633Z,0.00
2022-11-03T00:44:49.591Z,0.00
2022-11-03T00:45:49.636Z,0.00
2022-11-03T00:46:49.607Z,0.00
2022-11-03T00:47:49.601Z,0.00
2022-11-03T00:48:49.786Z,0.00
2022-11-03T00:49:49.542Z,0.00
2022-11-03T00:50:49.748Z,0.00
2022-11-03T00:51:49.558Z,0.00
2022-11-03T00:52:49.531Z,0.00
2022-11-03T00:53:49.507Z,0.00
2022-11-03T00:54:54.328Z,0.00
2022-11-03T00:55:50.490Z,0.00
2022-11-03T00:56:49.484Z,0.00
2022-11-03T00:57:49.530Z,0.00
2022-11-03T00:58:49.460Z,0.00
2022-11-03T00:59:49.441Z,0.00
2022-11-03T01:00:49.475Z,0.00
2022-11-03T01:01:49.499Z,0.00
2022-11-03T01:02:49.418Z,0.00
2022-11-03T01:03:49.427Z,0.00
2022-11-03T01:04:49.383Z,0.00
2022-11-03T01:05:49.368Z,0.00
2022-11-03T01:06:49.389Z,0.00
2022-11-03T01:07:49.385Z,0.00
2022-11-03T01:08:49.356Z,0.00
2022-11-03T01:09:49.358Z,0.00
2022-11-03T01:10:49.330Z,0.00
2022-11-03T01:11:49.315Z,0.00
2022-11-03T01:12:49.311Z,0.00
2022-11-03T01:13:49.294Z,0.00
2022-11-03T01:14:49.315Z,0.00
2022-11-03T01:15:49.295Z,0.00
2022-11-03T01:16:49.261Z,0.00
2022-11-03T01:17:49.266Z,0.00
2022-11-03T01:18:49.228Z,0.00
2022-11-03T01:19:49.268Z,0.00
2022-11-03T01:20:49.220Z,0.00
2022-11-03T01:21:49.191Z,0.00
2022-11-03T01:22:49.196Z,0.00
2022-11-03T01:23:49.179Z,0.00
2022-11-03T01:24:49.189Z,0.00
2022-11-03T01:25:49.166Z,0.00
2022-11-03T01:26:49.172Z,0.00
2022-11-03T01:27:49.153Z,0.00
2022-11-03T01:28:49.139Z,0.00
2022-11-03T01:29:49.135Z,0.00
2022-11-03T01:30:49.217Z,0.00
2022-11-03T01:31:49.120Z,0.00
2022-11-03T01:32:49.117Z,0.00
2022-11-03T01:33:49.078Z,0.00
2022-11-03T01:34:49.150Z,0.00
2022-11-03T01:35:49.081Z,0.00
2022-11-03T01:36:49.052Z,0.00
2022-11-03T01:37:49.038Z,0.00
2022-11-03T01:38:49.081Z,0.00
2022-11-03T01:39:49.052Z,0.00
2022-11-03T01:40:48.999Z,0.00
2022-11-03T01:41:49.004Z,0.00
2022-11-03T01:42:48.999Z,0.00
2022-11-03T01:43:48.980Z,0.00
2022-11-03T01:44:48.985Z,0.00
2022-11-03T01:45:48.968Z,0.00
2022-11-03T01:46:48.933Z,0.00
2022-11-03T01:47:48.996Z,0.00
2022-11-03T01:48:48.914Z,0.00
2022-11-03T01:49:48.916Z,0.00
2022-11-03T01:50:48.953Z,0.00
2022-11-03T01:51:48.929Z,0.00
2022-11-03T01:52:48.940Z,0.00
2022-11-03T01:53:48.865Z,0.00
2022-11-03T01:54:48.866Z,0.00
2022-11-03T01:55:48.868Z,0.00
2022-11-03T01:56:48.849Z,0.00
2022-11-03T01:57:48.860Z,0.00
2022-11-03T01:58:48.804Z,0.00
2022-11-03T01:59:48.818Z,0.00
2022-11-03T02:00:48.869Z,0.00
2022-11-03T02:01:49.033Z,0.00
2022-11-03T02:02:48.777Z,0.00
2022-11-03T02:03:48.757Z,0.00
2022-11-03T02:04:48.758Z,0.00
2022-11-03T02:05:48.744Z,0.00
2022-11-03T02:10:26.770Z,0.00
2022-11-03T02:11:07.186Z,0.00
2022-11-03T02:12:05.737Z,0.00
2022-11-03T02:13:07.114Z,0.00
2022-11-03T02:14:06.803Z,0.00
2022-11-03T02:15:05.745Z,0.00
2022-11-03T02:16:05.671Z,0.00
2022-11-03T02:17:05.647Z,0.00
2022-11-03T02:18:05.648Z,0.00
2022-11-03T02:19:05.648Z,0.00
2022-11-03T02:20:05.620Z,0.00
2022-11-03T02:21:05.817Z,0.00
2022-11-03T02:22:05.585Z,0.00
2022-11-03T02:23:06.065Z,0.00
2022-11-03T02:24:05.588Z,0.00
2022-11-03T02:25:05.560Z,0.00
2022-11-03T02:26:05.556Z,0.00
2022-11-03T02:27:05.539Z,0.00
2022-11-03T02:28:05.539Z,0.00
2022-11-03T02:29:05.509Z,0.00
2022-11-03T02:30:06.317Z,0.00
2022-11-03T02:31:05.532Z,0.00
2022-11-03T02:32:05.528Z,0.00
2022-11-03T02:33:05.915Z,0.00
2022-11-03T02:34:05.485Z,0.00
2022-11-03T02:35:05.458Z,0.00
2022-11-03T02:36:05.478Z,0.00
2022-11-03T02:37:05.439Z,0.00
2022-11-03T02:38:05.450Z,0.00
2022-11-03T02:39:05.408Z,0.00
2022-11-03T02:40:06.304Z,0.00
2022-11-03T02:41:05.368Z,0.00
2022-11-03T02:42:05.405Z,0.00
2022-11-03T02:43:05.732Z,0.00
2022-11-03T02:44:05.419Z,0.00
2022-11-03T02:45:05.368Z,0.00
2022-11-03T02:46:05.338Z,0.00
2022-11-03T02:47:05.328Z,0.00
2022-11-03T02:48:05.356Z,0.00
2022-11-03T02:49:05.332Z,0.00
2022-11-03T02:50:05.278Z,0.00
2022-11-03T02:51:05.270Z,0.00
2022-11-03T02:52:05.583Z,0.00
2022-11-03T02:53:05.626Z,0.00
2022-11-03T02:54:05.279Z,0.00
2022-11-03T02:55:05.250Z,0.00
2022-11-03T02:56:05.275Z,0.00
2022-11-03T02:57:05.222Z,0.00
2022-11-03T02:58:05.202Z,0.00
2022-11-03T02:59:05.174Z,0.00
2022-11-03T03:00:05.180Z,0.00
2022-11-03T03:01:05.200Z,0.00
2022-11-03T03:02:05.316Z,0.00
2022-11-03T03:03:05.448Z,0.00
2022-11-03T03:04:05.154Z,0.00
2022-11-03T03:05:05.114Z,0.00
2022-11-03T03:06:05.126Z,0.00
2022-11-03T03:07:05.116Z,0.00
2022-11-03T03:08:05.108Z,0.00
2022-11-03T03:09:05.101Z,0.00
2022-11-03T03:10:05.076Z,0.00
2022-11-03T03:11:05.046Z,0.00
2022-11-03T03:12:05.047Z,0.00
2022-11-03T03:13:05.379Z,0.00
2022-11-03T03:14:05.040Z,0.00
2022-11-03T03:15:05.032Z,0.00
2022-11-03T03:16:05.088Z,0.00
2022-11-03T03:17:04.988Z,0.00
2022-11-03T03:18:04.979Z,0.00
2022-11-03T03:19:04.985Z,0.00
2022-11-03T03:20:04.946Z,0.00
2022-11-03T03:21:04.967Z,0.00
2022-11-03T03:22:04.964Z,0.00
2022-11-03T03:23:08.949Z,0.00
2022-11-03T03:24:05.918Z,0.00
2022-11-03T03:25:04.941Z,0.00
2022-11-03T03:26:04.897Z,0.00
2022-11-03T03:27:04.904Z,0.00
2022-11-03T03:28:04.909Z,0.00
2022-11-03T03:29:04.860Z,0.00
2022-11-03T03:30:04.854Z,0.00
2022-11-03T03:31:04.909Z,0.00
2022-11-03T03:32:04.880Z,0.00
2022-11-03T03:33:05.122Z,0.00
2022-11-03T03:34:16.626Z,0.00
2022-11-03T03:35:05.796Z,0.00
2022-11-03T03:36:04.804Z,0.00
2022-11-03T03:37:04.800Z,0.00
2022-11-03T03:38:05.071Z,0.00
2022-11-03T03:39:04.777Z,0.00
2022-11-03T03:40:05.706Z,0.00
2022-11-03T03:41:10.406Z,0.00
2022-11-03T03:42:05.730Z,0.00
2022-11-03T03:43:04.709Z,0.00
2022-11-03T03:44:04.748Z,0.00
2022-11-03T03:45:05.743Z,0.00
2022-11-03T03:46:04.715Z,0.00
2022-11-03T03:47:04.666Z,0.00
2022-11-03T03:48:04.767Z,0.00
2022-11-03T03:49:04.693Z,0.00
2022-11-03T03:50:04.644Z,0.00
2022-11-03T03:51:04.657Z,0.00
2022-11-03T03:52:04.601Z,0.00
2022-11-03T03:53:04.599Z,0.00
2022-11-03T03:54:05.384Z,0.00
2022-11-03T03:55:04.575Z,0.00
2022-11-03T03:56:04.641Z,0.00
2022-11-03T03:57:04.569Z,0.00
2022-11-03T03:58:04.846Z,0.00
2022-11-03T03:59:04.539Z,0.00
2022-11-03T04:00:05.330Z,0.00
2022-11-03T04:01:04.593Z,0.00
2022-11-03T04:02:04.632Z,0.00
2022-11-03T04:03:04.498Z,0.00
2022-11-03T04:04:04.550Z,0.00
2022-11-03T04:05:04.505Z,0.00
2022-11-03T04:06:04.473Z,0.00
2022-11-03T04:07:04.447Z,0.00
2022-11-03T04:08:04.697Z,0.00
2022-11-03T04:09:04.476Z,0.00
2022-11-03T04:10:04.425Z,0.00
2022-11-03T04:11:04.629Z,0.00
2022-11-03T04:12:04.399Z,0.00
2022-11-03T04:13:04.410Z,0.00
2022-11-03T04:14:04.436Z,0.00
2022-11-03T04:15:04.367Z,0.00
2022-11-03T04:16:04.418Z,0.00
2022-11-03T04:17:04.344Z,0.00
2022-11-03T04:18:04.709Z,0.00
2022-11-03T04:19:04.367Z,0.00
2022-11-03T04:20:04.297Z,0.00
2022-11-03T04:21:04.325Z,0.00
2022-11-03T04:22:04.396Z,0.00
2022-11-03T04:23:04.307Z,0.00
2022-11-03T04:24:04.316Z,0.00
2022-11-03T04:25:04.308Z,0.00
2022-11-03T04:26:04.235Z,0.00
2022-11-03T04:27:04.248Z,0.00
2022-11-03T04:28:04.568Z,0.00
2022-11-03T04:29:04.207Z,0.00
2022-11-03T04:30:04.258Z,0.00
2022-11-03T04:31:04.191Z,0.00
2022-11-03T04:32:04.207Z,0.00
2022-11-03T04:33:04.161Z,0.00
2022-11-03T04:34:04.168Z,0.00
2022-11-03T04:35:04.145Z,0.00
2022-11-03T04:36:04.161Z,0.00
2022-11-03T04:37:04.161Z,0.00
2022-11-03T04:38:04.523Z,0.00
2022-11-03T04:39:04.099Z,0.00
2022-11-03T04:40:04.089Z,0.00
2022-11-03T04:41:04.056Z,0.00
2022-11-03T04:42:04.142Z,0.00
2022-11-03T04:43:04.393Z,0.00
2022-11-03T04:44:04.049Z,0.00
2022-11-03T04:45:04.040Z,0.00
2022-11-03T04:46:04.036Z,0.00
2022-11-03T04:47:04.017Z,0.00
2022-11-03T04:48:04.049Z,0.00
2022-11-03T04:49:03.986Z,0.00
2022-11-03T04:50:03.982Z,0.00
2022-11-03T04:51:03.997Z,0.00
2022-11-03T04:52:03.965Z,0.00
2022-11-03T04:53:04.216Z,0.00
2022-11-03T04:54:03.976Z,0.00
2022-11-03T04:55:03.962Z,0.00
2022-11-03T04:56:07.415Z,0.00
2022-11-03T04:57:03.893Z,0.00
2022-11-03T04:58:03.914Z,0.00
2022-11-03T04:59:03.911Z,0.00
2022-11-03T05:00:03.872Z,0.00
2022-11-03T05:01:03.952Z,0.00
2022-11-03T05:02:04.022Z,0.00
2022-11-03T05:03:03.855Z,0.00
2022-11-03T05:04:03.851Z,0.00
2022-11-03T05:05:03.808Z,0.00
2022-11-03T05:06:05.275Z,0.00
2022-11-03T05:07:03.839Z,0.00
2022-11-03T05:08:03.792Z,0.00
2022-11-03T05:09:03.768Z,0.00
2022-11-03T05:10:03.748Z,0.00
2022-11-03T05:11:04.653Z,0.00
2022-11-03T05:12:05.226Z,0.00
2022-11-03T05:13:03.977Z,0.00
2022-11-03T05:14:03.708Z,0.00
2022-11-03T05:15:03.718Z,0.00
2022-11-03T05:16:03.685Z,0.00
2022-11-03T05:17:03.705Z,0.00
2022-11-03T05:18:03.657Z,0.00
2022-11-03T05:19:03.652Z,0.00
2022-11-03T05:20:03.657Z,0.00
2022-11-03T05:21:03.647Z,0.00
2022-11-03T05:22:03.611Z,0.00
2022-11-03T05:23:04.159Z,0.00
2022-11-03T05:24:03.774Z,0.00
2022-11-03T05:25:03.610Z,0.00
2022-11-03T05:26:03.610Z,0.00
2022-11-03T05:27:03.613Z,0.00
2022-11-03T05:28:03.650Z,0.00
2022-11-03T05:29:03.558Z,0.00
2022-11-03T05:30:03.542Z,0.00
2022-11-03T05:31:03.531Z,0.00
2022-11-03T05:32:03.513Z,0.00
2022-11-03T05:33:03.689Z,0.00
2022-11-03T05:34:04.492Z,0.00
2022-11-03T05:35:03.496Z,0.00
2022-11-03T05:36:03.469Z,0.00
2022-11-03T05:37:03.508Z,0.00
2022-11-03T05:38:03.613Z,0.00
2022-11-03T05:39:04.524Z,0.00
2022-11-03T05:40:03.470Z,0.00
2022-11-03T05:41:04.334Z,0.00
2022-11-03T05:42:03.579Z,0.00
2022-11-03T05:43:06.246Z,0.00
2022-11-03T05:44:05.578Z,0.00
2022-11-03T05:45:03.387Z,0.00
2022-11-03T05:46:03.439Z,0.00
2022-11-03T05:47:05.954Z,0.00
2022-11-03T05:48:04.725Z,0.00
2022-11-03T05:49:03.518Z,0.00
2022-11-03T05:50:03.528Z,0.00
2022-11-03T05:51:03.324Z,0.00
2022-11-03T05:52:03.310Z,0.00
2022-11-03T05:53:03.434Z,0.00
2022-11-03T05:54:03.296Z,0.00
2022-11-03T05:55:03.275Z,0.00
2022-11-03T05:56:03.242Z,0.00
2022-11-03T05:57:03.238Z,0.00
2022-11-03T05:58:03.582Z,0.00
2022-11-03T05:59:03.230Z,0.00
2022-11-03T06:00:03.687Z,0.00
2022-11-03T06:01:03.200Z,0.00
2022-11-03T06:02:03.267Z,0.00
2022-11-03T06:03:03.223Z,0.00
2022-11-03T06:04:03.167Z,0.00
2022-11-03T06:05:04.010Z,0.00
2022-11-03T06:06:03.185Z,0.00
2022-11-03T06:07:03.140Z,0.00
2022-11-03T06:08:04.640Z,0.00
2022-11-03T06:09:03.161Z,0.00
2022-11-03T06:10:03.124Z,0.00
2022-11-03T06:11:03.092Z,0.00
2022-11-03T06:12:03.100Z,0.00
2022-11-03T06:13:03.096Z,0.00
2022-11-03T06:14:03.092Z,0.00
2022-11-03T06:15:03.080Z,0.00
2022-11-03T06:16:03.060Z,0.00
2022-11-03T06:17:03.042Z,0.00
2022-11-03T06:18:03.022Z,5.62
2022-11-03T06:19:03.876Z,5.62
2022-11-03T06:20:03.051Z,5.62
2022-11-03T06:21:03.010Z,5.62
2022-11-03T06:22:03.982Z,5.62
2022-11-03T06:23:03.054Z,5.62
2022-11-03T06:24:03.792Z,5.62
2022-11-03T06:25:02.995Z,5.62
2022-11-03T06:26:02.923Z,5.62
2022-11-03T06:27:04.011Z,5.62
2022-11-03T06:28:02.945Z,5.62
2022-11-03T06:29:02.931Z,11.25
2022-11-03T06:30:02.881Z,11.25
2022-11-03T06:31:02.868Z,11.25
2022-11-03T06:32:02.867Z,11.25
2022-11-03T06:33:02.972Z,11.25
2022-11-03T06:34:02.841Z,11.25
2022-11-03T06:35:02.861Z,16.88
2022-11-03T06:36:02.862Z,16.88
2022-11-03T06:37:02.838Z,16.88
2022-11-03T06:38:02.799Z,16.88
2022-11-03T06:39:02.804Z,22.50
2022-11-03T06:40:02.775Z,22.50
2022-11-03T06:41:02.808Z,22.50
2022-11-03T06:42:02.773Z,22.50
2022-11-03T06:43:02.770Z,22.50
2022-11-03T06:44:02.734Z,28.12
2022-11-03T06:45:02.744Z,28.12
2022-11-03T06:46:02.753Z,28.12
2022-11-03T06:47:02.700Z,33.75
2022-11-03T06:48:02.705Z,33.75
2022-11-03T06:49:03.432Z,33.75
2022-11-03T06:50:02.689Z,33.75
2022-11-03T06:51:02.663Z,39.38
2022-11-03T06:52:03.711Z,39.38
2022-11-03T06:53:02.629Z,39.38
2022-11-03T06:54:02.658Z,45.00
2022-11-03T06:55:03.173Z,45.00
2022-11-03T06:56:03.260Z,45.00
2022-11-03T06:57:02.626Z,45.00
2022-11-03T06:58:02.588Z,50.62
2022-11-03T06:59:02.825Z,50.62
2022-11-03T07:00:20.376Z,50.62
2022-11-03T07:01:04.211Z,50.62
2022-11-03T07:02:02.649Z,56.25
2022-11-03T07:03:02.549Z,56.25
2022-11-03T07:04:02.523Z,56.25
2022-11-03T07:05:02.513Z,61.88
2022-11-03T07:06:02.495Z,61.88
2022-11-03T07:07:02.470Z,61.88
2022-11-03T07:08:02.580Z,67.50
2022-11-03T07:09:03.935Z,67.50
2022-11-03T07:10:02.454Z,67.50
2022-11-03T07:11:02.493Z,73.12
2022-11-03T07:12:02.437Z,73.12
2022-11-03T07:13:06.915Z,78.75
2022-11-03T07:14:02.490Z,78.75
2022-11-03T07:16:02.410Z,78.75
2022-11-03T07:17:02.425Z,84.38
2022-11-03T07:18:02.510Z,84.38
2022-11-03T07:19:02.425Z,90.00
2022-11-03T07:20:02.360Z,90.00
2022-11-03T07:21:02.337Z,95.62
2022-11-03T07:22:02.329Z,95.62
2022-11-03T07:23:02.379Z,101.25
2022-11-03T07:24:02.330Z,101.25
2022-11-03T07:25:02.311Z,106.88
2022-11-03T07:26:03.123Z,112.50
2022-11-03T07:27:02.254Z,112.50
2022-11-03T07:28:02.251Z,118.12
2022-11-03T07:29:02.262Z,118.12
2022-11-03T07:30:02.315Z,123.75
2022-11-03T07:31:02.227Z,123.75
2022-11-03T07:32:02.232Z,129.38
2022-11-03T07:33:02.298Z,129.38
2022-11-03T07:34:02.597Z,135.00
2022-11-03T07:35:02.192Z,135.00
2022-11-03T07:36:15.604Z,140.62
2022-11-03T07:37:03.168Z,146.25
2022-11-03T07:38:02.135Z,146.25
2022-11-03T07:39:02.158Z,151.88
2022-11-03T07:40:02.167Z,151.88
2022-11-03T07:41:02.134Z,157.50
2022-11-03T07:42:02.086Z,157.50
2022-11-03T07:43:02.139Z,157.50
2022-11-03T07:44:02.131Z,163.12
2022-11-03T07:45:02.090Z,163.12
2022-11-03T07:46:03.095Z,163.12
2022-11-03T07:47:02.046Z,168.75
2022-11-03T07:48:04.496Z,168.75
2022-11-03T07:49:02.035Z,174.38
2022-11-03T07:50:02.004Z,174.38
2022-11-03T07:51:03.460Z,174.38
2022-11-03T07:52:01.993Z,180.00
2022-11-03T07:53:02.086Z,180.00
2022-11-03T07:54:01.988Z,185.62
2022-11-03T07:55:01.966Z,191.25
2022-11-03T07:56:02.013Z,191.25
2022-11-03T07:57:01.951Z,196.88
2022-11-03T07:58:01.921Z,196.88
2022-11-03T07:59:01.924Z,202.50
2022-11-03T08:00:05.305Z,202.50
2022-11-03T08:01:03.282Z,202.50
2022-11-03T08:02:01.964Z,208.12
2022-11-03T08:03:02.987Z,208.12
2022-11-03T08:04:02.898Z,208.12
2022-11-03T08:06:14.578Z,219.38
2022-11-03T08:07:12.099Z,225.00
2022-11-03T08:08:11.929Z,230.62
2022-11-03T08:09:12.102Z,236.25
2022-11-03T08:10:11.943Z,241.88
2022-11-03T08:11:11.873Z,253.12
2022-11-03T08:12:11.878Z,258.75
2022-11-03T08:13:11.914Z,253.12
2022-11-03T08:14:11.885Z,253.12
2022-11-03T08:15:12.098Z,264.38
2022-11-03T08:16:11.844Z,275.62
2022-11-03T08:17:11.819Z,275.62
2022-11-03T08:18:11.948Z,275.62
2022-11-03T08:19:11.798Z,275.62
2022-11-03T08:20:11.800Z,270.00
2022-11-03T08:21:11.793Z,275.62
2022-11-03T08:22:11.765Z,281.25
2022-11-03T08:23:25.183Z,286.88
2022-11-03T08:24:12.765Z,292.50
2022-11-03T08:25:11.724Z,298.12
2022-11-03T08:26:11.731Z,303.75
2022-11-03T08:27:11.725Z,309.38
2022-11-03T08:28:11.711Z,315.00
2022-11-03T08:29:11.692Z,315.00
2022-11-03T08:30:11.683Z,315.00
2022-11-03T08:31:13.165Z,320.62
2022-11-03T08:32:11.671Z,320.62
2022-11-03T08:33:11.651Z,320.62
2022-11-03T08:34:11.639Z,320.62
2022-11-03T08:35:11.630Z,326.25
2022-11-03T08:36:11.618Z,331.88
2022-11-03T08:37:11.600Z,331.88
2022-11-03T08:38:11.592Z,326.25
2022-11-03T08:39:11.593Z,326.25
2022-11-03T08:40:11.580Z,337.50
2022-11-03T08:41:11.571Z,343.12
2022-11-03T08:42:11.565Z,348.75
2022-11-03T08:43:11.594Z,354.38
2022-11-03T08:44:11.557Z,360.00
2022-11-03T08:45:11.516Z,371.25
2022-11-03T08:46:17.726Z,365.62
2022-11-03T08:47:12.510Z,365.62
2022-11-03T08:48:11.528Z,371.25
2022-11-03T08:49:11.465Z,371.25
2022-11-03T08:50:11.970Z,365.62
2022-11-03T08:51:11.467Z,360.00
2022-11-03T08:52:11.452Z,348.75
2022-11-03T08:53:11.445Z,348.75
2022-11-03T08:54:11.436Z,348.75
2022-11-03T08:55:11.431Z,360.00
2022-11-03T08:56:13.077Z,360.00
2022-11-03T08:57:11.394Z,354.38
2022-11-03T08:58:11.445Z,354.38
2022-11-03T08:59:11.385Z,360.00
2022-11-03T09:00:11.467Z,348.75
2022-11-03T09:01:11.432Z,337.50
2022-11-03T09:02:11.424Z,326.25
2022-11-03T09:03:11.369Z,320.62
2022-11-03T09:04:11.731Z,320.62
2022-11-03T09:05:11.300Z,315.00
2022-11-03T09:06:11.307Z,315.00
2022-11-03T09:07:11.283Z,309.38
2022-11-03T09:10:21.244Z,292.50
2022-11-03T09:11:12.248Z,286.88
2022-11-03T09:12:11.239Z,281.25
2022-11-03T09:13:11.217Z,281.25
2022-11-03T09:14:11.227Z,275.62
2022-11-03T09:15:11.198Z,275.62
2022-11-03T09:16:11.795Z,275.62
2022-11-03T09:17:11.176Z,275.62
2022-11-03T09:18:11.276Z,281.25
2022-11-03T09:19:11.161Z,286.88
2022-11-03T09:20:11.155Z,286.88
2022-11-03T09:21:11.134Z,298.12
2022-11-03T09:22:11.120Z,303.75
2022-11-03T09:23:11.109Z,309.38
2022-11-03T09:24:11.109Z,315.00
2022-11-03T09:25:11.089Z,326.25
2022-11-03T09:26:11.091Z,331.88
2022-11-03T09:27:11.075Z,337.50
2022-11-03T09:28:11.653Z,343.12
2022-11-03T09:29:11.203Z,354.38
2022-11-03T09:30:13.928Z,365.62
2022-11-03T09:31:11.011Z,382.50
2022-11-03T09:32:11.016Z,393.75
2022-11-03T09:33:11.029Z,405.00
2022-11-03T09:34:11.004Z,416.25
2022-11-03T09:35:10.984Z,416.25
2022-11-03T09:36:10.996Z,421.88
2022-11-03T09:37:10.988Z,421.88
2022-11-03T09:38:10.962Z,421.88
2022-11-03T09:39:10.976Z,427.50
2022-11-03T09:40:11.017Z,433.12
2022-11-03T09:41:24.855Z,433.12
2022-11-03T09:42:11.917Z,433.12
2022-11-03T09:43:11.174Z,438.75
2022-11-03T09:44:10.880Z,438.75
2022-11-03T09:45:10.877Z,444.38
2022-11-03T09:46:10.864Z,444.38
2022-11-03T09:47:10.859Z,444.38
2022-11-03T09:48:10.957Z,444.38
2022-11-03T09:49:10.835Z,444.38
2022-11-03T09:50:10.833Z,444.38
2022-11-03T09:51:10.798Z,438.75
2022-11-03T09:52:10.799Z,433.12
2022-11-03T09:53:10.784Z,433.12
2022-11-03T09:54:10.772Z,433.12
2022-11-03T09:55:10.762Z,438.75
2022-11-03T09:56:10.752Z,444.38
2022-11-03T09:57:10.962Z,455.62
2022-11-03T09:58:10.734Z,461.25
2022-11-03T09:59:10.722Z,461.25
2022-11-03T10:00:10.738Z,478.12
2022-11-03T10:01:10.780Z,500.62
2022-11-03T10:02:10.779Z,506.25
2022-11-03T10:03:10.849Z,506.25
2022-11-03T10:04:11.324Z,506.25
2022-11-03T10:05:11.289Z,506.25
2022-11-03T10:06:12.921Z,489.38
2022-11-03T10:07:10.641Z,444.38
2022-11-03T10:08:10.644Z,421.88
2022-11-03T10:09:10.613Z,410.62
2022-11-03T10:10:10.607Z,405.00
2022-11-03T10:11:10.853Z,399.38
2022-11-03T10:12:10.601Z,399.38
2022-11-03T10:13:10.581Z,393.75
2022-11-03T10:14:10.568Z,393.75
2022-11-03T10:15:10.554Z,393.75
2022-11-03T10:16:10.544Z,405.00
2022-11-03T10:17:10.511Z,410.62
2022-11-03T10:18:10.617Z,410.62
2022-11-03T10:19:10.514Z,405.00
2022-11-03T10:20:10.499Z,416.25
2022-11-03T10:21:10.726Z,421.88
2022-11-03T10:22:10.483Z,421.88
2022-11-03T10:23:10.462Z,438.75
2022-11-03T10:24:10.498Z,450.00
2022-11-03T10:25:10.450Z,461.25
2022-11-03T10:26:10.442Z,472.50
2022-11-03T10:27:10.538Z,466.88
2022-11-03T10:28:14.365Z,461.25
2022-11-03T10:29:10.466Z,444.38
2022-11-03T10:30:10.391Z,421.88
2022-11-03T10:31:12.212Z,405.00
2022-11-03T10:32:10.473Z,393.75
2022-11-03T10:33:10.570Z,393.75
2022-11-03T10:34:10.340Z,382.50
2022-11-03T10:35:10.360Z,365.62
2022-11-03T10:36:10.322Z,360.00
2022-11-03T10:37:10.324Z,354.38
2022-11-03T10:38:10.310Z,360.00
2022-11-03T10:39:10.305Z,360.00
2022-11-03T10:40:22.356Z,354.38
2022-11-03T10:41:11.301Z,354.38
2022-11-03T10:42:10.270Z,354.38
2022-11-03T10:43:10.266Z,354.38
2022-11-03T10:44:10.262Z,354.38
2022-11-03T10:45:10.267Z,348.75
2022-11-03T10:46:29.598Z,343.12
2022-11-03T10:47:11.217Z,331.88
2022-11-03T10:48:10.402Z,326.25
2022-11-03T10:49:10.193Z,320.62
2022-11-03T10:50:10.178Z,320.62
2022-11-03T10:51:10.175Z,315.00
2022-11-03T10:52:10.159Z,315.00
2022-11-03T10:53:10.468Z,315.00
2022-11-03T10:54:10.138Z,320.62
2022-11-03T10:55:10.148Z,320.62
2022-11-03T10:56:10.548Z,320.62
2022-11-03T10:57:10.115Z,320.62
2022-11-03T10:58:10.358Z,320.62
2022-11-03T10:59:10.099Z,320.62
2022-11-03T11:00:10.126Z,331.88
2022-11-03T11:01:10.156Z,337.50
2022-11-03T11:02:10.181Z,337.50
2022-11-03T11:03:13.721Z,337.50
2022-11-03T11:04:11.101Z,331.88
2022-11-03T11:05:10.004Z,320.62
2022-11-03T11:06:10.607Z,315.00
2022-11-03T11:07:10.024Z,309.38
2022-11-03T11:08:10.131Z,303.75
2022-11-03T11:09:09.996Z,303.75
2022-11-03T11:10:09.965Z,298.12
2022-11-03T11:11:09.965Z,298.12
2022-11-03T11:12:09.963Z,303.75
2022-11-03T11:13:10.264Z,315.00
2022-11-03T11:14:09.940Z,331.88
2022-11-03T11:15:09.920Z,348.75
2022-11-03T11:16:09.938Z,388.12
2022-11-03T11:17:09.894Z,444.38
2022-11-03T11:18:10.000Z,405.00
2022-11-03T11:19:09.885Z,343.12
2022-11-03T11:20:09.885Z,326.25
2022-11-03T11:21:09.857Z,320.62
2022-11-03T11:22:09.848Z,315.00
2022-11-03T11:23:10.389Z,309.38
2022-11-03T11:24:09.831Z,303.75
2022-11-03T11:25:09.812Z,309.38
2022-11-03T11:26:09.839Z,320.62
2022-11-03T11:27:09.798Z,337.50
2022-11-03T11:28:09.780Z,337.50
2022-11-03T11:29:09.788Z,354.38
2022-11-03T11:30:09.763Z,360.00
2022-11-03T11:31:09.775Z,348.75
2022-11-03T11:32:09.741Z,331.88
2022-11-03T11:33:09.963Z,320.62
2022-11-03T11:34:09.732Z,303.75
2022-11-03T11:35:09.734Z,286.88
2022-11-03T11:36:09.755Z,270.00
2022-11-03T11:37:10.053Z,264.38
2022-11-03T11:38:09.676Z,258.75
2022-11-03T11:39:09.668Z,253.12
2022-11-03T11:40:09.653Z,241.88
2022-11-03T11:41:09.640Z,230.62
2022-11-03T11:42:09.704Z,230.62
2022-11-03T11:43:10.017Z,219.38
2022-11-03T11:44:09.613Z,213.75
2022-11-03T11:45:09.604Z,208.12
2022-11-03T11:46:09.642Z,202.50
2022-11-03T11:47:09.893Z,196.88
2022-11-03T11:48:12.571Z,191.25
2022-11-03T11:49:10.832Z,185.62
2022-11-03T11:50:09.922Z,185.62
2022-11-03T11:51:09.535Z,180.00
2022-11-03T11:52:15.228Z,174.38
2022-11-03T11:53:10.818Z,168.75
2022-11-03T11:54:18.197Z,163.12
2022-11-03T11:55:10.659Z,157.50
2022-11-03T11:56:09.477Z,157.50
2022-11-03T11:57:09.467Z,157.50
2022-11-03T11:58:09.883Z,163.12
2022-11-03T11:59:09.460Z,163.12
2022-11-03T12:00:09.531Z,163.12
2022-11-03T12:01:09.421Z,163.12
2022-11-03T12:02:09.403Z,163.12
2022-11-03T12:03:09.835Z,163.12
2022-11-03T12:04:09.528Z,163.12
2022-11-03T12:05:09.397Z,168.75
2022-11-03T12:06:09.361Z,174.38
2022-11-03T12:07:09.683Z,180.00
2022-11-03T12:08:09.667Z,185.62
2022-11-03T12:09:09.339Z,191.25
2022-11-03T12:10:09.332Z,196.88
2022-11-03T12:11:09.354Z,196.88
2022-11-03T12:12:09.454Z,196.88
2022-11-03T12:13:09.683Z,191.25
2022-11-03T12:14:09.291Z,191.25
2022-11-03T12:15:09.286Z,185.62
2022-11-03T12:16:09.262Z,185.62
2022-11-03T12:17:09.259Z,185.62
2022-11-03T12:18:09.515Z,185.62
2022-11-03T12:19:09.244Z,185.62
2022-11-03T12:20:09.233Z,185.62
2022-11-03T12:21:09.223Z,191.25
2022-11-03T12:22:09.325Z,196.88
2022-11-03T12:23:09.871Z,202.50
2022-11-03T12:24:09.182Z,202.50
2022-11-03T12:25:09.163Z,208.12
2022-11-03T12:26:09.164Z,213.75
2022-11-03T12:27:09.549Z,213.75
2022-11-03T12:28:09.486Z,213.75
2022-11-03T12:29:09.126Z,213.75
2022-11-03T12:30:09.113Z,213.75
2022-11-03T12:31:09.106Z,213.75
2022-11-03T12:32:25.581Z,213.75
2022-11-03T12:33:10.234Z,213.75
2022-11-03T12:34:09.078Z,213.75
2022-11-03T12:35:09.070Z,213.75
2022-11-03T12:36:09.051Z,208.12
2022-11-03T12:37:09.032Z,208.12
2022-11-03T12:38:09.049Z,213.75
2022-11-03T12:39:09.149Z,213.75
2022-11-03T12:40:09.009Z,219.38
2022-11-03T12:41:09.006Z,219.38
2022-11-03T12:42:09.312Z,225.00
2022-11-03T12:43:09.429Z,230.62
2022-11-03T12:44:09.031Z,230.62
2022-11-03T12:45:08.946Z,236.25
2022-11-03T12:46:08.941Z,241.88
2022-11-03T12:47:08.933Z,247.50
2022-11-03T12:48:08.908Z,264.38
2022-11-03T12:49:08.904Z,281.25
2022-11-03T12:50:08.921Z,292.50
2022-11-03T12:51:08.896Z,298.12
2022-11-03T12:52:08.931Z,298.12
2022-11-03T12:53:09.216Z,292.50
2022-11-03T12:54:08.874Z,292.50
2022-11-03T12:55:09.058Z,292.50
2022-11-03T12:56:08.843Z,298.12
2022-11-03T12:57:09.038Z,292.50
2022-11-03T12:58:09.161Z,286.88
2022-11-03T12:59:08.809Z,281.25
2022-11-03T13:00:08.822Z,275.62
2022-11-03T13:01:08.869Z,264.38
2022-11-03T13:02:08.902Z,253.12